^^
Grace C. Lehan Memorial Weather Station Historical Data
Daily Summary for June 3, 2021 Units:  Metric    English   Both
Daily Weekly Monthly Yearly
  High: Low: Average:
Temperature: 6.3 °C 3.4 °C 5.1 °C
Dew Point: 4.2 °C -5.3 °C -1 °C
Humidity: 91% 48.1% 66%
Wind Speed: 24.8km/h 0km/h 8.5km/h
Wind Gust: 45.1km/h - -
Wind- - WNW
Pressure: 1014.1 hPa 1000.2 hPa -
Precipitation: 0 mm    
 
 
Tabular Data for June 3, 2021
Time Temperature Dew Point Pressure Wind Wind Speed Wind Gust Humidity Rainfall Rate (Hourly) solar
00:04 5.6 °C 4.2 °C 1000.6 hPa West 1 km/h 9.7 km/h 91% 0 mm 0 W/m2
00:09 5.6 °C 4.2 °C 1000.6 hPa West 1.1 km/h 6.4 km/h 91% 0 mm 0 W/m2
00:14 5.6 °C 4.2 °C 1000.2 hPa West 0.6 km/h 6.4 km/h 91% 0 mm 0 W/m2
00:19 5.5 °C 4.2 °C 1000.6 hPa West 0.8 km/h 6.4 km/h 91% 0 mm 0 W/m2
00:24 5.5 °C 4.2 °C 1000.6 hPa West 1.6 km/h 8 km/h 91% 0 mm 0 W/m2
00:29 5.5 °C 4.2 °C 1000.9 hPa West 2.6 km/h 11.3 km/h 91% 0 mm 0 W/m2
00:34 5.5 °C 4.1 °C 1000.9 hPa WSW 2.1 km/h 11.3 km/h 90.4% 0 mm 0 W/m2
00:39 5.5 °C 4 °C 1000.9 hPa WSW 3.1 km/h 9.7 km/h 90% 0 mm 0 W/m2
00:44 5.5 °C 4 °C 1000.9 hPa WSW 3.9 km/h 17.7 km/h 90% 0 mm 0 W/m2
00:49 5.5 °C 3.9 °C 1000.9 hPa WSW 4 km/h 19.3 km/h 89.8% 0 mm 0 W/m2
00:54 5.6 °C 3.9 °C 1000.9 hPa WSW 3.4 km/h 19.3 km/h 89% 0 mm 0 W/m2
00:59 5.6 °C 3.8 °C 1001.2 hPa WSW 2.6 km/h 19.3 km/h 88.5% 0 mm 0 W/m2
01:04 5.7 °C 3.8 °C 1001.2 hPa West 2.6 km/h 19.3 km/h 88% 0 mm 0 W/m2
01:09 5.8 °C 3.9 °C 1001.2 hPa WSW 4.7 km/h 16.1 km/h 88% 0 mm 0 W/m2
01:14 5.8 °C 4 °C 1001.2 hPa West 2.3 km/h 16.1 km/h 88% 0 mm 0 W/m2
01:19 5.8 °C 3.9 °C 1001.2 hPa West 1 km/h 16.1 km/h 87.6% 0 mm 0 W/m2
01:24 5.8 °C 3.8 °C 1001.2 hPa WSW 1.3 km/h 16.1 km/h 87% 0 mm 0 W/m2
01:29 5.8 °C 3.7 °C 1001.2 hPa WSW 1.9 km/h 16.1 km/h 86.7% 0 mm 0 W/m2
01:34 5.8 °C 3.6 °C 1000.9 hPa West 0.6 km/h 16.1 km/h 86% 0 mm 0 W/m2
01:39 5.7 °C 3.6 °C 1001.2 hPa West 0.2 km/h 8 km/h 86% 0 mm 0 W/m2
01:44 5.7 °C 3.5 °C 1001.6 hPa Calm   8 km/h 86% 0 mm 0 W/m2
01:49 5.6 °C 3.3 °C 1001.6 hPa West 0.8 km/h 8 km/h 85.2% 0 mm 0 W/m2
01:54 5.5 °C 3.3 °C 1001.9 hPa Calm   8 km/h 85.4% 0 mm 0 W/m2
01:59 5.5 °C 3.2 °C 1001.9 hPa WSW 1 km/h 9.7 km/h 85% 0 mm 0 W/m2
02:04 5.4 °C 3.1 °C 1001.9 hPa West 0.5 km/h 9.7 km/h 85% 0 mm 0 W/m2
02:09 5.4 °C 3 °C 1002.3 hPa NW 1.3 km/h 6.4 km/h 84.2% 0 mm 0 W/m2
02:14 5.5 °C 2.9 °C 1002.3 hPa Calm   6.4 km/h 83.6% 0 mm 0 W/m2
02:19 5.6 °C 2.9 °C 1002.3 hPa Calm   6.4 km/h 83% 0 mm 0 W/m2
02:24 5.6 °C 2.8 °C 1002.3 hPa West 0.2 km/h 6.4 km/h 82.1% 0 mm 0 W/m2
02:29 5.6 °C 2.7 °C 1002.3 hPa Calm   6.4 km/h 81.8% 0 mm 0 W/m2
02:34 5.6 °C 2.6 °C 1002.3 hPa West 0.2 km/h 6.4 km/h 81% 0 mm 0 W/m2
02:39 5.6 °C 2.6 °C 1002.3 hPa Calm   3.2 km/h 81% 0 mm 0 W/m2
02:44 5.6 °C 2.6 °C 1002.3 hPa NW 0.6 km/h 6.4 km/h 81% 0 mm 0 W/m2
02:49 5.5 °C 2.3 °C 1002.3 hPa NNW 0.6 km/h 6.4 km/h 80% 0 mm 0 W/m2
02:54 5.6 °C 2.4 °C 1002.6 hPa NNW 0.2 km/h 6.4 km/h 80% 0 mm 0 W/m2
02:59 5.5 °C 2.3 °C 1002.6 hPa NW 3.2 km/h 11.3 km/h 79.7% 0 mm 0 W/m2
03:04 5.5 °C 2.2 °C 1002.6 hPa WNW 1.1 km/h 11.3 km/h 79.4% 0 mm 0 W/m2
03:09 5.4 °C 2.1 °C 1002.6 hPa WNW 1.4 km/h 8 km/h 79.2% 0 mm 0 W/m2
03:14 5.3 °C 2 °C 1002.6 hPa WNW 6 km/h 19.3 km/h 78.8% 0 mm 0 W/m2
03:19 5.3 °C 1.8 °C 1002.9 hPa WNW 2.4 km/h 19.3 km/h 78% 0 mm 0 W/m2
03:24 5.3 °C 1.8 °C 1002.9 hPa WNW 2.6 km/h 19.3 km/h 78% 0 mm 0 W/m2
03:29 5.3 °C 1.8 °C 1002.9 hPa West 1.6 km/h 19.3 km/h 78% 0 mm 0 W/m2
03:34 5.3 °C 1.7 °C 1002.9 hPa West 5.1 km/h 19.3 km/h 77.6% 0 mm 0 W/m2
03:39 5.2 °C 1.5 °C 1002.9 hPa WNW 3.2 km/h 17.7 km/h 77% 0 mm 0 W/m2
03:44 5.2 °C 1.5 °C 1002.9 hPa WNW 1.8 km/h 17.7 km/h 77% 0 mm 0 W/m2
03:49 5.2 °C 1.5 °C 1003.3 hPa WNW 0.8 km/h 17.7 km/h 77% 0 mm 0 W/m2
03:54 5.1 °C 1.4 °C 1003.6 hPa WNW 0.5 km/h 17.7 km/h 77% 0 mm 0 W/m2
03:59 5.1 °C 1.3 °C 1003.6 hPa WNW 1.1 km/h 17.7 km/h 77% 0 mm 0 W/m2
04:00 5 °C 1.3 °C 1003.3 hPa Calm   17.7 km/h 77% 0 mm 0 W/m2
04:09 4.9 °C 1.2 °C 1003.6 hPa WNW 6.1 km/h 24.1 km/h 76.8% 0 mm 0 W/m2
04:14 5 °C 0.9 °C 1003.6 hPa WNW 8.7 km/h 24.1 km/h 75.1% 0 mm 0 W/m2
04:19 5.1 °C 0.9 °C 1003.6 hPa WNW 10.1 km/h 25.7 km/h 74.2% 0 mm 0 W/m2
04:24 5.2 °C 0.8 °C 1003.9 hPa WNW 13 km/h 25.7 km/h 73.2% 0 mm 0 W/m2
04:29 5.3 °C 0.7 °C 1003.9 hPa WNW 14 km/h 29 km/h 72.1% 0 mm 0 W/m2
04:34 5.4 °C 0.7 °C 1003.9 hPa WNW 12.1 km/h 29 km/h 71.7% 0 mm 0 W/m2
04:39 5.4 °C 0.6 °C 1004.3 hPa WNW 11.4 km/h 24.1 km/h 70.9% 0 mm 0 W/m2
04:44 5.4 °C 0.4 °C 1004.3 hPa WNW 9.3 km/h 25.7 km/h 70% 0 mm 0 W/m2
04:49 5.4 °C 0.4 °C 1004.3 hPa NW 9.3 km/h 25.7 km/h 70% 0 mm 0 W/m2
04:54 5.4 °C 0.3 °C 1004.6 hPa NW 4.5 km/h 25.7 km/h 70% 0 mm 0 W/m2
04:59 5.3 °C 0.3 °C 1005 hPa WNW 8.2 km/h 25.7 km/h 70% 0 mm 0 W/m2
05:04 5.2 °C 0.1 °C 1005 hPa NW 14.3 km/h 32.2 km/h 69.3% 0 mm 0 W/m2
05:09 5.2 °C -0.2 °C 1005 hPa NW 13.4 km/h 32.2 km/h 67.8% 0 mm 0 W/m2
05:14 5.3 °C -0.4 °C 1005 hPa NW 17.4 km/h 38.6 km/h 66.8% 0 mm 0 W/m2
05:19 5.2 °C -0.4 °C 1005.3 hPa NW 13 km/h 38.6 km/h 66.8% 0 mm 0 W/m2
05:24 5.2 °C -0.4 °C 1005.3 hPa WNW 11.3 km/h 38.6 km/h 66.7% 0 mm 0 W/m2
05:29 5.2 °C -0.4 °C 1005.6 hPa WNW 4.5 km/h 38.6 km/h 67% 0 mm 0 W/m2
05:34 5.1 °C -0.5 °C 1005.6 hPa WNW 11.1 km/h 38.6 km/h 67.2% 0 mm 0 W/m2
05:38 5 °C -0.4 °C 1006 hPa WNW 9.2 km/h 25.7 km/h 68% 0 mm 0 W/m2
05:44 4.9 °C -0.4 °C 1006.3 hPa WNW 16.7 km/h 40.2 km/h 68.1% 0 mm 0 W/m2
05:49 4.9 °C -0.3 °C 1006.3 hPa WNW 18.7 km/h 40.2 km/h 69% 0 mm 0 W/m2
05:54 4.9 °C -0.3 °C 1006.3 hPa WNW 14.6 km/h 40.2 km/h 69% 0 mm 0 W/m2
05:59 4.8 °C -0.2 °C 1006.3 hPa WNW 10 km/h 40.2 km/h 70% 0 mm 0 W/m2
06:04 4.8 °C -0.2 °C 1006.7 hPa NW 13.8 km/h 40.2 km/h 70% 0 mm 0 W/m2
06:09 4.7 °C -0.4 °C 1006.7 hPa WNW 15.9 km/h 33.8 km/h 69.5% 0 mm 0 W/m2
06:14 4.7 °C -0.5 °C 1007 hPa NW 11.4 km/h 33.8 km/h 69.3% 0 mm 0 W/m2
06:19 4.7 °C -0.5 °C 1007 hPa NW 11.3 km/h 33.8 km/h 69.1% 0 mm 0 W/m2
06:24 4.6 °C -0.6 °C 1007 hPa WNW 8.2 km/h 33.8 km/h 69% 0 mm 0 W/m2
06:29 4.6 °C -0.6 °C 1007 hPa WNW 14.3 km/h 33.8 km/h 68.8% 0 mm 0 W/m2
06:34 4.6 °C -0.8 °C 1007 hPa NW 10.9 km/h 33.8 km/h 67.9% 0 mm 0 W/m2
06:39 4.6 °C -0.9 °C 1007 hPa NW 7.4 km/h 22.5 km/h 67.7% 0 mm 0 W/m2
06:44 4.6 °C -0.8 °C 1007 hPa WNW 4.3 km/h 22.5 km/h 68% 0 mm 0 W/m2
06:49 4.5 °C -0.9 °C 1007.3 hPa WNW 1.1 km/h 22.5 km/h 67.9% 0 mm 0 W/m2
06:54 4.5 °C -0.9 °C 1007.7 hPa NW 3.1 km/h 22.5 km/h 67.9% 0 mm 0 W/m2
06:59 4.5 °C -0.9 °C 1008 hPa NW 8.5 km/h 22.5 km/h 67.7% 0 mm 0 W/m2
07:04 4.4 °C -1.2 °C 1008 hPa NW 8.7 km/h 22.5 km/h 67% 0 mm 0 W/m2
07:09 4.4 °C -1.1 °C 1008 hPa NW 4.3 km/h 22.5 km/h 67.2% 0 mm 0 W/m2
07:14 4.4 °C -0.9 °C 1008 hPa WNW 1.6 km/h 22.5 km/h 68.3% 0 mm 0 W/m2
07:19 4.4 °C -0.8 °C 1008 hPa NW 5.1 km/h 22.5 km/h 69% 0 mm 5 W/m2
07:24 4.3 °C -0.8 °C 1008.4 hPa WNW 2.7 km/h 22.5 km/h 69.4% 0 mm 9 W/m2
07:29 4.3 °C -0.8 °C 1008.4 hPa WNW 5.3 km/h 22.5 km/h 69.6% 0 mm 9 W/m2
07:34 4.2 °C -1 °C 1008.7 hPa NW 6.4 km/h 22.5 km/h 69% 0 mm 9 W/m2
07:39 4.2 °C -1.2 °C 1008.7 hPa NW 8.5 km/h 24.1 km/h 68% 0 mm 12 W/m2
07:44 4.1 °C -1.3 °C 1008.7 hPa NW 9.5 km/h 24.1 km/h 68% 0 mm 16 W/m2
07:49 4.1 °C -1.3 °C 1009 hPa WNW 6.1 km/h 25.7 km/h 68% 0 mm 16 W/m2
07:54 4 °C -1.6 °C 1009 hPa WNW 10.1 km/h 29 km/h 67.1% 0 mm 21 W/m2
07:59 3.9 °C -1.8 °C 1009 hPa NW 17.1 km/h 37 km/h 66% 0 mm 23 W/m2
08:00 3.9 °C -1.8 °C 1009 hPa WNW 16.1 km/h 37 km/h 66% 0 mm 23 W/m2
08:09 3.8 °C -1.9 °C 1009.4 hPa NW 13.4 km/h 24.1 km/h 66% 0 mm 37 W/m2
08:14 3.8 °C -1.9 °C 1009.4 hPa WNW 7.1 km/h 24.1 km/h 66% 0 mm 42 W/m2
08:19 3.8 °C -1.9 °C 1009.4 hPa WNW 8.5 km/h 24.1 km/h 66% 0 mm 39 W/m2
08:24 3.8 °C -2 °C 1009.4 hPa NW 14.5 km/h 37 km/h 66% 0 mm 51 W/m2
08:29 3.8 °C -2.1 °C 1009.4 hPa NW 4.5 km/h 37 km/h 65.4% 0 mm 56 W/m2
08:34 3.8 °C -2.2 °C 1009.4 hPa NW 10.8 km/h 37 km/h 65.1% 0 mm 54 W/m2
08:39 3.8 °C -2.2 °C 1009.4 hPa NW 11.1 km/h 37 km/h 64.9% 0 mm 72 W/m2
08:44 3.8 °C -2.5 °C 1009.4 hPa WNW 16.1 km/h 37 km/h 63.7% 0 mm 83 W/m2
08:49 3.8 °C -2.4 °C 1009.7 hPa NW 6.6 km/h 37 km/h 64% 0 mm 88 W/m2
08:54 3.8 °C -2.3 °C 1009.7 hPa NW 3.9 km/h 37 km/h 64% 0 mm 100 W/m2
08:59 3.9 °C -2.3 °C 1010 hPa WNW 2.7 km/h 37 km/h 64% 0 mm 93 W/m2
09:04 3.9 °C -2.3 °C 1010 hPa NW 11.4 km/h 37 km/h 63.7% 0 mm 98 W/m2
09:09 4 °C -2.4 °C 1009.7 hPa NW 11.3 km/h 27.4 km/h 63% 0 mm 95 W/m2
09:14 4 °C -2.6 °C 1010 hPa WNW 13.2 km/h 35.4 km/h 62.3% 0 mm 102 W/m2
09:19 4 °C -2.6 °C 1010 hPa NW 8 km/h 35.4 km/h 62.1% 0 mm 98 W/m2
09:24 4 °C -2.6 °C 1010 hPa NW 14 km/h 35.4 km/h 62.1% 0 mm 95 W/m2
09:29 4.1 °C -2.6 °C 1010.4 hPa NW 12.4 km/h 35.4 km/h 61.8% 0 mm 91 W/m2
09:34 4.1 °C -2.7 °C 1010.4 hPa WNW 9 km/h 35.4 km/h 61.2% 0 mm 93 W/m2
09:39 4.1 °C -2.8 °C 1010.7 hPa WNW 11.9 km/h 27.4 km/h 61% 0 mm 86 W/m2
09:44 4.1 °C -2.7 °C 1011.1 hPa WNW 9.7 km/h 27.4 km/h 61% 0 mm 70 W/m2
09:49 4.1 °C -2.7 °C 1010.7 hPa WNW 5.8 km/h 27.4 km/h 61.2% 0 mm 88 W/m2
09:54 4.2 °C -2.4 °C 1011.1 hPa NW 7.2 km/h 27.4 km/h 62% 0 mm 105 W/m2
09:59 4.2 °C -2.6 °C 1011.1 hPa WNW 13.7 km/h 30.6 km/h 61.4% 0 mm 107 W/m2
10:04 4.3 °C -2.6 °C 1011.1 hPa WNW 11.6 km/h 30.6 km/h 61% 0 mm 113 W/m2
10:09 4.4 °C -2.4 °C 1011.1 hPa WNW 14 km/h 29 km/h 61% 0 mm 454 W/m2
10:14 4.6 °C -2.3 °C 1011.1 hPa WNW 9.2 km/h 29 km/h 61% 0 mm 158 W/m2
10:19 4.7 °C -2.2 °C 1011.1 hPa WNW 7.6 km/h 29 km/h 61.1% 0 mm 178 W/m2
10:24 4.8 °C -2.1 °C 1011.4 hPa WNW 14.2 km/h 29 km/h 61.2% 0 mm 162 W/m2
10:29 4.8 °C -2.2 °C 1011.1 hPa NW 10.8 km/h 29 km/h 60.4% 0 mm 153 W/m2
10:34 4.8 °C -2.2 °C 1011.1 hPa NW 12.7 km/h 29 km/h 60.5% 0 mm 163 W/m2
10:39 4.8 °C -2.1 °C 1011.1 hPa NW 9.5 km/h 29 km/h 61% 0 mm 304 W/m2
10:44 5 °C -1.7 °C 1011.1 hPa WNW 14.8 km/h 38.6 km/h 61.7% 0 mm 497 W/m2
10:49 5.3 °C -1.8 °C 1011.1 hPa NW 16.6 km/h 38.6 km/h 60% 0 mm 213 W/m2
10:54 5.3 °C -2 °C 1010.7 hPa NW 16.6 km/h 38.6 km/h 59.1% 0 mm 190 W/m2
10:59 5.4 °C -1.7 °C 1010.7 hPa NW 9.7 km/h 38.6 km/h 60% 0 mm 193 W/m2
11:04 5.6 °C -1.9 °C 1010.7 hPa WNW 15.6 km/h 38.6 km/h 58.3% 0 mm 181 W/m2
11:09 5.6 °C -2.1 °C 1010.7 hPa NW 19.3 km/h 37 km/h 57.8% 0 mm 165 W/m2
11:14 5.6 °C -2.1 °C 1010.7 hPa NW 14 km/h 37 km/h 57.7% 0 mm 193 W/m2
11:19 5.7 °C -2 °C 1010.7 hPa WNW 16.7 km/h 37 km/h 57.4% 0 mm 195 W/m2
11:24 5.9 °C -2 °C 1010.7 hPa NW 15.1 km/h 37 km/h 56.8% 0 mm 274 W/m2
11:29 6.1 °C -2 °C 1010.7 hPa NW 15.1 km/h 37 km/h 56.3% 0 mm 243 W/m2
11:34 6.1 °C -2.2 °C 1010.7 hPa WNW 20 km/h 37 km/h 55.1% 0 mm 383 W/m2
11:39 6.2 °C -2.3 °C 1010.7 hPa WNW 24.8 km/h 45.1 km/h 54.8% 0 mm 353 W/m2
11:44 6.1 °C -2.3 °C 1010.7 hPa NW 18.3 km/h 45.1 km/h 55% 0 mm 320 W/m2
11:49 6.1 °C -2.2 °C 1010.7 hPa NW 13.7 km/h 45.1 km/h 55.5% 0 mm 376 W/m2
11:54 6.2 °C -2.3 °C 1010.4 hPa WNW 19.3 km/h 45.1 km/h 54.8% 0 mm 376 W/m2
11:59 6.1 °C -2.4 °C 1010.4 hPa NW 17.4 km/h 45.1 km/h 54.2% 0 mm 306 W/m2
12:00 6 °C -2.3 °C 1010.4 hPa WNW 20.9 km/h 45.1 km/h 55% 0 mm 306 W/m2
12:09 5.9 °C -2.2 °C 1010.4 hPa NW 14.8 km/h 32.2 km/h 56% 0 mm 309 W/m2
12:14 5.9 °C -2.2 °C 1010.4 hPa NW 12.9 km/h 32.2 km/h 56% 0 mm 313 W/m2
12:19 6 °C -2.2 °C 1010.4 hPa NW 11.4 km/h 33.8 km/h 55.7% 0 mm 283 W/m2
12:24 6 °C -2.3 °C 1010.4 hPa NW 14.8 km/h 35.4 km/h 55.1% 0 mm 142 W/m2
12:29 5.8 °C -2.3 °C 1010.7 hPa NW 14.6 km/h 35.4 km/h 56.1% 0 mm 250 W/m2
12:34 5.8 °C -2 °C 1010.7 hPa WNW 12.4 km/h 35.4 km/h 57% 0 mm 519 W/m2
12:39 6 °C -1.9 °C 1010.4 hPa NW 13.4 km/h 25.7 km/h 57% 0 mm 199 W/m2
12:44 6 °C -1.8 °C 1010.4 hPa WNW 6 km/h 25.7 km/h 57% 0 mm 246 W/m2
12:49 6.2 °C -1.8 °C 1010.4 hPa NW 11.3 km/h 27.4 km/h 56.6% 0 mm 262 W/m2
12:54 6.2 °C -2.2 °C 1010.4 hPa NW 16.9 km/h 35.4 km/h 54.8% 0 mm 209 W/m2
12:59 6.1 °C -2.4 °C 1010.4 hPa NW 11.3 km/h 35.4 km/h 54.6% 0 mm 206 W/m2
13:04 6.1 °C -2.3 °C 1010.7 hPa WNW 10.9 km/h 35.4 km/h 54.9% 0 mm 302 W/m2
13:09 6.1 °C -2.4 °C 1010.7 hPa NW 17.5 km/h 33.8 km/h 54.1% 0 mm 155 W/m2
13:14 6.1 °C -2.6 °C 1010.7 hPa WNW 12.9 km/h 33.8 km/h 53.9% 0 mm 81 W/m2
13:19 6.1 °C -2.5 °C 1010.7 hPa NW 12.6 km/h 33.8 km/h 54.1% 0 mm 137 W/m2
13:24 6.1 °C -2.7 °C 1010.7 hPa NW 13.5 km/h 33.8 km/h 53.5% 0 mm 102 W/m2
13:29 5.9 °C -2.8 °C 1010.7 hPa WNW 18.7 km/h 35.4 km/h 53.5% 0 mm 192 W/m2
13:34 5.9 °C -2.7 °C 1010.7 hPa WNW 15 km/h 35.4 km/h 54% 0 mm 304 W/m2
13:39 6 °C -2.6 °C 1010.7 hPa NW 12.1 km/h 29 km/h 54% 0 mm 304 W/m2
13:44 6 °C -2.7 °C 1011.1 hPa WNW 10.8 km/h 29 km/h 53.7% 0 mm 232 W/m2
13:49 6.1 °C -2.8 °C 1011.1 hPa NW 9 km/h 29 km/h 53% 0 mm 287 W/m2
13:54 6.2 °C -2.5 °C 1011.1 hPa WNW 10 km/h 29 km/h 53.6% 0 mm 257 W/m2
13:59 6.3 °C -2.9 °C 1011.1 hPa WNW 17.1 km/h 30.6 km/h 51.8% 0 mm 236 W/m2
14:04 6.3 °C -3.2 °C 1011.4 hPa NW 12.4 km/h 30.6 km/h 50.8% 0 mm 158 W/m2
14:09 6.2 °C -3.1 °C 1011.4 hPa NW 15.3 km/h 27.4 km/h 51.3% 0 mm 214 W/m2
14:14 6.2 °C -3.2 °C 1011.4 hPa NW 8.7 km/h 29 km/h 50.9% 0 mm 144 W/m2
14:19 6.2 °C -3.3 °C 1011.4 hPa WNW 13.4 km/h 29 km/h 50.5% 0 mm 67 W/m2
14:24 6.3 °C -3.5 °C 1011.4 hPa WNW 15.9 km/h 32.2 km/h 49.5% 0 mm 39 W/m2
14:29 6.2 °C -3.8 °C 1011.7 hPa WNW 10.5 km/h 32.2 km/h 48.7% 0 mm 132 W/m2
14:34 6.1 °C -4.1 °C 1011.7 hPa WNW 10.9 km/h 32.2 km/h 48.1% 0 mm 132 W/m2
14:39 6.1 °C -3.9 °C 1011.7 hPa WNW 10.1 km/h 27.4 km/h 48.7% 0 mm 26 W/m2
14:44 6.1 °C -3.7 °C 1011.7 hPa WNW 11.6 km/h 27.4 km/h 49.4% 0 mm 26 W/m2
14:49 6 °C -3.6 °C 1011.7 hPa NW 7.2 km/h 27.4 km/h 50.3% 0 mm 25 W/m2
14:54 5.9 °C -3.6 °C 1011.7 hPa NW 9 km/h 27.4 km/h 50.5% 0 mm 25 W/m2
14:59 5.8 °C -3.6 °C 1011.7 hPa NW 10.3 km/h 27.4 km/h 51% 0 mm 23 W/m2
15:04 5.7 °C -3.6 °C 1011.7 hPa WNW 11.3 km/h 33.8 km/h 51.4% 0 mm 23 W/m2
15:09 5.6 °C -3.8 °C 1011.7 hPa WNW 9.5 km/h 33.8 km/h 50.8% 0 mm 21 W/m2
15:14 5.4 °C -3.8 °C 1011.7 hPa WNW 10.1 km/h 33.8 km/h 51% 0 mm 21 W/m2
15:19 5.4 °C -3.9 °C 1012.1 hPa NW 5.6 km/h 33.8 km/h 51% 0 mm 19 W/m2
15:24 5.3 °C -3.9 °C 1012.1 hPa NW 9.3 km/h 33.8 km/h 51.2% 0 mm 19 W/m2
15:29 5.2 °C -4.1 °C 1012.1 hPa WNW 10.9 km/h 33.8 km/h 51% 0 mm 18 W/m2
15:34 5.1 °C -4.2 °C 1012.4 hPa WNW 7.6 km/h 33.8 km/h 51% 0 mm 18 W/m2
15:39 5 °C -4.3 °C 1012.4 hPa WNW 8.2 km/h 32.2 km/h 51% 0 mm 16 W/m2
15:44 4.9 °C -4.3 °C 1012.8 hPa NW 10.8 km/h 32.2 km/h 51% 0 mm 14 W/m2
15:49 4.8 °C -4.4 °C 1012.4 hPa WNW 11.9 km/h 32.2 km/h 51% 0 mm 12 W/m2
15:54 4.8 °C -4.5 °C 1012.4 hPa WNW 6.3 km/h 32.2 km/h 51% 0 mm 12 W/m2
15:59 4.7 °C -4.6 °C 1012.8 hPa WNW 11.4 km/h 32.2 km/h 51% 0 mm 11 W/m2
16:00 4.7 °C -4.6 °C 1012.4 hPa WNW 1.6 km/h 32.2 km/h 51% 0 mm 9 W/m2
16:09 4.5 °C -4.7 °C 1013.1 hPa NW 7.4 km/h 22.5 km/h 51.1% 0 mm 7 W/m2
16:14 4.4 °C -4.7 °C 1013.1 hPa NW 5.1 km/h 22.5 km/h 51.5% 0 mm 5 W/m2
16:19 4.3 °C -4.8 °C 1013.1 hPa WNW 6.4 km/h 24.1 km/h 51.3% 0 mm 0 W/m2
16:24 4.2 °C -5.1 °C 1013.1 hPa WNW 4.5 km/h 24.1 km/h 51% 0 mm 0 W/m2
16:29 4.1 °C -5 °C 1013.4 hPa NW 3.7 km/h 24.1 km/h 51.4% 0 mm 0 W/m2
16:34 4 °C -4.9 °C 1013.4 hPa NNW 6.1 km/h 25.7 km/h 51.9% 0 mm 0 W/m2
16:39 3.9 °C -5.1 °C 1013.4 hPa NW 6.4 km/h 25.7 km/h 52% 0 mm 0 W/m2
16:44 3.8 °C -5.1 °C 1013.8 hPa WNW 6.4 km/h 25.7 km/h 52% 0 mm 0 W/m2
16:49 3.8 °C -5.2 °C 1013.8 hPa NW 2.9 km/h 25.7 km/h 52% 0 mm 0 W/m2
16:54 3.7 °C -5.3 °C 1013.8 hPa NW 4.8 km/h 25.7 km/h 52% 0 mm 0 W/m2
16:59 3.6 °C -5.3 °C 1013.8 hPa NW 5 km/h 25.7 km/h 52% 0 mm 0 W/m2
17:04 3.6 °C -5.2 °C 1014.1 hPa WNW 3.5 km/h 25.7 km/h 52.8% 0 mm 0 W/m2
17:09 3.4 °C -5.2 °C 1014.1 hPa NW 2.7 km/h 14.5 km/h 53% 0 mm 0 W/m2
17:13 3.4 °C -5.3 °C 1014.1 hPa WNW 0.5 km/h 14.5 km/h 53% 0 mm 0 W/m2
Hartford County Weather
Compliments of Weather Underground - 4 mb